sensor_id;sensor_type;location;lat;lon;timestamp;P1;durP1;ratioP1;P2;durP2;ratioP2
75246;SDS011;63844;50.042;19.224;2023-06-19T00:02:23;12.80;;;9.60;;
75246;SDS011;63844;50.042;19.224;2023-06-19T00:07:16;11.40;;;8.80;;
75246;SDS011;63844;50.042;19.224;2023-06-19T00:09:42;14.80;;;10.20;;
75246;SDS011;63844;50.042;19.224;2023-06-19T00:12:09;14.20;;;9.80;;
75246;SDS011;63844;50.042;19.224;2023-06-19T00:14:36;15.30;;;10.00;;
75246;SDS011;63844;50.042;19.224;2023-06-19T00:17:02;14.10;;;9.50;;
75246;SDS011;63844;50.042;19.224;2023-06-19T00:19:29;12.20;;;9.80;;
75246;SDS011;63844;50.042;19.224;2023-06-19T00:24:23;16.80;;;11.20;;
75246;SDS011;63844;50.042;19.224;2023-06-19T00:26:50;15.40;;;10.60;;
75246;SDS011;63844;50.042;19.224;2023-06-19T00:29:16;14.10;;;9.80;;
75246;SDS011;63844;50.042;19.224;2023-06-19T00:31:42;18.10;;;11.80;;
75246;SDS011;63844;50.042;19.224;2023-06-19T00:34:09;17.40;;;10.30;;
75246;SDS011;63844;50.042;19.224;2023-06-19T00:39:06;14.70;;;9.40;;
75246;SDS011;63844;50.042;19.224;2023-06-19T00:41:35;14.00;;;10.20;;
75246;SDS011;63844;50.042;19.224;2023-06-19T00:44:02;15.40;;;11.10;;
75246;SDS011;63844;50.042;19.224;2023-06-19T00:46:28;16.70;;;11.90;;
75246;SDS011;63844;50.042;19.224;2023-06-19T00:48:55;15.30;;;10.90;;
75246;SDS011;63844;50.042;19.224;2023-06-19T00:53:48;13.10;;;9.40;;
75246;SDS011;63844;50.042;19.224;2023-06-19T00:58:44;13.40;;;9.70;;
75246;SDS011;63844;50.042;19.224;2023-06-19T01:03:37;13.70;;;10.10;;
75246;SDS011;63844;50.042;19.224;2023-06-19T01:06:08;13.90;;;10.30;;
75246;SDS011;63844;50.042;19.224;2023-06-19T01:08:42;17.00;;;11.60;;
75246;SDS011;63844;50.042;19.224;2023-06-19T01:11:17;17.60;;;10.70;;
75246;SDS011;63844;50.042;19.224;2023-06-19T01:13:51;15.20;;;10.50;;
75246;SDS011;63844;50.042;19.224;2023-06-19T01:16:24;14.40;;;10.30;;
75246;SDS011;63844;50.042;19.224;2023-06-19T01:18:51;14.20;;;10.10;;
75246;SDS011;63844;50.042;19.224;2023-06-19T01:21:19;13.30;;;10.20;;
75246;SDS011;63844;50.042;19.224;2023-06-19T01:23:46;15.50;;;10.70;;
75246;SDS011;63844;50.042;19.224;2023-06-19T01:26:13;14.00;;;10.50;;
75246;SDS011;63844;50.042;19.224;2023-06-19T01:28:42;14.20;;;10.00;;
75246;SDS011;63844;50.042;19.224;2023-06-19T01:31:30;17.30;;;11.80;;
75246;SDS011;63844;50.042;19.224;2023-06-19T01:34:01;13.80;;;10.20;;
75246;SDS011;63844;50.042;19.224;2023-06-19T01:36:31;14.40;;;10.70;;
75246;SDS011;63844;50.042;19.224;2023-06-19T01:38:58;14.00;;;9.90;;
75246;SDS011;63844;50.042;19.224;2023-06-19T01:41:25;14.20;;;10.30;;
75246;SDS011;63844;50.042;19.224;2023-06-19T01:43:52;15.10;;;9.90;;
75246;SDS011;63844;50.042;19.224;2023-06-19T01:46:19;14.00;;;9.90;;
75246;SDS011;63844;50.042;19.224;2023-06-19T01:48:46;15.30;;;10.70;;
75246;SDS011;63844;50.042;19.224;2023-06-19T01:53:39;14.80;;;10.00;;
75246;SDS011;63844;50.042;19.224;2023-06-19T01:56:05;15.10;;;10.20;;
75246;SDS011;63844;50.042;19.224;2023-06-19T01:58:32;13.80;;;10.00;;
75246;SDS011;63844;50.042;19.224;2023-06-19T02:03:25;14.60;;;9.30;;
75246;SDS011;63844;50.042;19.224;2023-06-19T02:08:18;13.40;;;9.20;;
75246;SDS011;63844;50.042;19.224;2023-06-19T02:10:44;12.50;;;9.50;;
75246;SDS011;63844;50.042;19.224;2023-06-19T02:15:37;13.00;;;9.50;;
75246;SDS011;63844;50.042;19.224;2023-06-19T02:18:04;13.10;;;9.60;;
75246;SDS011;63844;50.042;19.224;2023-06-19T02:20:31;14.30;;;9.90;;
75246;SDS011;63844;50.042;19.224;2023-06-19T02:22:58;15.40;;;10.70;;
75246;SDS011;63844;50.042;19.224;2023-06-19T02:27:51;13.80;;;9.40;;
75246;SDS011;63844;50.042;19.224;2023-06-19T02:30:17;12.80;;;9.10;;
75246;SDS011;63844;50.042;19.224;2023-06-19T02:35:10;13.90;;;9.10;;
75246;SDS011;63844;50.042;19.224;2023-06-19T02:37:38;14.20;;;9.80;;
75246;SDS011;63844;50.042;19.224;2023-06-19T02:40:04;14.00;;;9.90;;
75246;SDS011;63844;50.042;19.224;2023-06-19T02:42:32;12.70;;;9.20;;
75246;SDS011;63844;50.042;19.224;2023-06-19T02:44:59;16.70;;;10.80;;
75246;SDS011;63844;50.042;19.224;2023-06-19T02:47:32;15.70;;;10.70;;
75246;SDS011;63844;50.042;19.224;2023-06-19T02:50:00;14.10;;;10.00;;
75246;SDS011;63844;50.042;19.224;2023-06-19T02:52:27;13.40;;;9.30;;
75246;SDS011;63844;50.042;19.224;2023-06-19T02:54:54;14.70;;;10.00;;
75246;SDS011;63844;50.042;19.224;2023-06-19T02:59:47;14.70;;;9.40;;
75246;SDS011;63844;50.042;19.224;2023-06-19T03:02:13;15.60;;;10.80;;
75246;SDS011;63844;50.042;19.224;2023-06-19T03:04:40;13.40;;;9.80;;
75246;SDS011;63844;50.042;19.224;2023-06-19T03:07:07;13.80;;;8.80;;
75246;SDS011;63844;50.042;19.224;2023-06-19T03:12:00;16.20;;;9.00;;
75246;SDS011;63844;50.042;19.224;2023-06-19T03:14:26;13.20;;;9.50;;
75246;SDS011;63844;50.042;19.224;2023-06-19T03:19:19;15.30;;;10.40;;
75246;SDS011;63844;50.042;19.224;2023-06-19T03:21:46;15.10;;;9.70;;
75246;SDS011;63844;50.042;19.224;2023-06-19T03:24:12;16.60;;;9.70;;
75246;SDS011;63844;50.042;19.224;2023-06-19T03:29:05;15.60;;;9.90;;
75246;SDS011;63844;50.042;19.224;2023-06-19T03:31:31;13.90;;;9.80;;
75246;SDS011;63844;50.042;19.224;2023-06-19T03:33:58;15.20;;;10.10;;
75246;SDS011;63844;50.042;19.224;2023-06-19T03:36:24;15.80;;;11.20;;
75246;SDS011;63844;50.042;19.224;2023-06-19T03:38:51;15.60;;;9.90;;
75246;SDS011;63844;50.042;19.224;2023-06-19T03:41:18;18.90;;;11.70;;
75246;SDS011;63844;50.042;19.224;2023-06-19T03:43:44;13.40;;;9.70;;
75246;SDS011;63844;50.042;19.224;2023-06-19T03:46:11;18.60;;;13.10;;
75246;SDS011;63844;50.042;19.224;2023-06-19T03:48:37;15.80;;;11.60;;
75246;SDS011;63844;50.042;19.224;2023-06-19T03:51:03;14.70;;;10.10;;
75246;SDS011;63844;50.042;19.224;2023-06-19T03:53:30;17.90;;;9.70;;
75246;SDS011;63844;50.042;19.224;2023-06-19T03:55:56;14.00;;;10.60;;
75246;SDS011;63844;50.042;19.224;2023-06-19T03:58:23;14.90;;;9.60;;
75246;SDS011;63844;50.042;19.224;2023-06-19T04:00:49;14.00;;;10.40;;
75246;SDS011;63844;50.042;19.224;2023-06-19T04:03:16;13.50;;;10.20;;
75246;SDS011;63844;50.042;19.224;2023-06-19T04:05:42;16.00;;;11.10;;
75246;SDS011;63844;50.042;19.224;2023-06-19T04:08:09;16.20;;;10.90;;
75246;SDS011;63844;50.042;19.224;2023-06-19T04:10:35;15.00;;;10.40;;
75246;SDS011;63844;50.042;19.224;2023-06-19T04:13:02;14.90;;;10.00;;
75246;SDS011;63844;50.042;19.224;2023-06-19T04:15:29;17.30;;;10.30;;
75246;SDS011;63844;50.042;19.224;2023-06-19T04:20:21;12.30;;;9.90;;
75246;SDS011;63844;50.042;19.224;2023-06-19T04:22:48;16.20;;;10.40;;
75246;SDS011;63844;50.042;19.224;2023-06-19T04:25:14;16.80;;;10.90;;
75246;SDS011;63844;50.042;19.224;2023-06-19T04:27:41;14.30;;;11.20;;
75246;SDS011;63844;50.042;19.224;2023-06-19T04:30:07;16.40;;;11.00;;
75246;SDS011;63844;50.042;19.224;2023-06-19T04:32:34;26.40;;;13.00;;
75246;SDS011;63844;50.042;19.224;2023-06-19T04:35:01;23.40;;;13.30;;
75246;SDS011;63844;50.042;19.224;2023-06-19T04:39:54;18.10;;;10.70;;
75246;SDS011;63844;50.042;19.224;2023-06-19T04:44:47;16.40;;;11.50;;
75246;SDS011;63844;50.042;19.224;2023-06-19T04:47:22;17.30;;;12.10;;
75246;SDS011;63844;50.042;19.224;2023-06-19T04:49:49;16.80;;;11.00;;
75246;SDS011;63844;50.042;19.224;2023-06-19T04:54:42;18.20;;;13.10;;
75246;SDS011;63844;50.042;19.224;2023-06-19T04:59:36;16.10;;;10.50;;
75246;SDS011;63844;50.042;19.224;2023-06-19T05:02:03;21.50;;;11.50;;
75246;SDS011;63844;50.042;19.224;2023-06-19T05:04:29;20.40;;;12.90;;
75246;SDS011;63844;50.042;19.224;2023-06-19T05:06:59;23.50;;;13.50;;
75246;SDS011;63844;50.042;19.224;2023-06-19T05:09:25;17.90;;;10.60;;
75246;SDS011;63844;50.042;19.224;2023-06-19T05:14:18;21.50;;;11.00;;
75246;SDS011;63844;50.042;19.224;2023-06-19T05:19:11;21.00;;;12.60;;
75246;SDS011;63844;50.042;19.224;2023-06-19T05:24:04;21.60;;;10.00;;
75246;SDS011;63844;50.042;19.224;2023-06-19T05:26:31;15.70;;;10.00;;
75246;SDS011;63844;50.042;19.224;2023-06-19T05:31:24;14.00;;;10.80;;
75246;SDS011;63844;50.042;19.224;2023-06-19T05:36:16;14.70;;;10.60;;
75246;SDS011;63844;50.042;19.224;2023-06-19T05:41:09;17.90;;;10.90;;
75246;SDS011;63844;50.042;19.224;2023-06-19T05:43:36;14.30;;;10.30;;
75246;SDS011;63844;50.042;19.224;2023-06-19T05:48:29;16.30;;;10.50;;
75246;SDS011;63844;50.042;19.224;2023-06-19T05:50:55;14.50;;;9.20;;
75246;SDS011;63844;50.042;19.224;2023-06-19T05:55:48;14.60;;;9.90;;
75246;SDS011;63844;50.042;19.224;2023-06-19T06:00:41;11.50;;;8.20;;
75246;SDS011;63844;50.042;19.224;2023-06-19T06:03:07;10.40;;;8.30;;
75246;SDS011;63844;50.042;19.224;2023-06-19T06:05:34;8.10;;;6.50;;
75246;SDS011;63844;50.042;19.224;2023-06-19T06:08:02;10.40;;;6.50;;
75246;SDS011;63844;50.042;19.224;2023-06-19T06:10:29;16.40;;;11.60;;
75246;SDS011;63844;50.042;19.224;2023-06-19T06:12:55;14.40;;;10.70;;
75246;SDS011;63844;50.042;19.224;2023-06-19T06:15:22;18.40;;;10.90;;
75246;SDS011;63844;50.042;19.224;2023-06-19T06:17:48;12.40;;;9.60;;
75246;SDS011;63844;50.042;19.224;2023-06-19T06:20:15;17.50;;;11.50;;
75246;SDS011;63844;50.042;19.224;2023-06-19T06:22:42;20.90;;;12.40;;
75246;SDS011;63844;50.042;19.224;2023-06-19T06:25:09;12.80;;;10.20;;
75246;SDS011;63844;50.042;19.224;2023-06-19T06:27:38;17.40;;;12.00;;
75246;SDS011;63844;50.042;19.224;2023-06-19T06:30:05;15.00;;;10.10;;
75246;SDS011;63844;50.042;19.224;2023-06-19T06:32:32;13.70;;;9.70;;
75246;SDS011;63844;50.042;19.224;2023-06-19T06:34:59;11.60;;;8.50;;
75246;SDS011;63844;50.042;19.224;2023-06-19T06:37:25;11.80;;;9.00;;
75246;SDS011;63844;50.042;19.224;2023-06-19T06:39:52;9.10;;;7.40;;
75246;SDS011;63844;50.042;19.224;2023-06-19T06:42:18;12.40;;;9.90;;
75246;SDS011;63844;50.042;19.224;2023-06-19T06:44:45;16.40;;;9.10;;
75246;SDS011;63844;50.042;19.224;2023-06-19T06:47:12;13.10;;;10.20;;
75246;SDS011;63844;50.042;19.224;2023-06-19T06:49:38;12.40;;;9.40;;
75246;SDS011;63844;50.042;19.224;2023-06-19T06:52:05;11.50;;;7.10;;
75246;SDS011;63844;50.042;19.224;2023-06-19T06:54:33;14.70;;;10.70;;
75246;SDS011;63844;50.042;19.224;2023-06-19T06:57:00;13.50;;;8.40;;
75246;SDS011;63844;50.042;19.224;2023-06-19T06:59:26;13.40;;;9.40;;
75246;SDS011;63844;50.042;19.224;2023-06-19T07:01:54;12.30;;;8.30;;
75246;SDS011;63844;50.042;19.224;2023-06-19T07:04:21;16.90;;;8.80;;
75246;SDS011;63844;50.042;19.224;2023-06-19T07:06:47;20.90;;;10.20;;
75246;SDS011;63844;50.042;19.224;2023-06-19T07:09:14;13.00;;;10.00;;
75246;SDS011;63844;50.042;19.224;2023-06-19T07:11:41;12.80;;;9.70;;
75246;SDS011;63844;50.042;19.224;2023-06-19T07:14:07;12.90;;;9.10;;
75246;SDS011;63844;50.042;19.224;2023-06-19T07:16:34;12.60;;;9.80;;
75246;SDS011;63844;50.042;19.224;2023-06-19T07:19:00;12.20;;;8.80;;
75246;SDS011;63844;50.042;19.224;2023-06-19T07:21:27;10.70;;;6.50;;
75246;SDS011;63844;50.042;19.224;2023-06-19T07:23:54;11.00;;;6.90;;
75246;SDS011;63844;50.042;19.224;2023-06-19T07:26:21;9.60;;;6.40;;
75246;SDS011;63844;50.042;19.224;2023-06-19T07:28:47;10.40;;;7.60;;
75246;SDS011;63844;50.042;19.224;2023-06-19T07:31:14;12.30;;;8.10;;
75246;SDS011;63844;50.042;19.224;2023-06-19T07:33:40;8.20;;;7.30;;
75246;SDS011;63844;50.042;19.224;2023-06-19T07:36:07;6.00;;;5.40;;
75246;SDS011;63844;50.042;19.224;2023-06-19T07:38:34;13.20;;;7.70;;
75246;SDS011;63844;50.042;19.224;2023-06-19T07:41:00;9.70;;;8.10;;
75246;SDS011;63844;50.042;19.224;2023-06-19T07:43:27;9.40;;;7.30;;
75246;SDS011;63844;50.042;19.224;2023-06-19T07:45:53;10.30;;;7.30;;
75246;SDS011;63844;50.042;19.224;2023-06-19T07:48:20;7.50;;;4.70;;
75246;SDS011;63844;50.042;19.224;2023-06-19T07:50:46;7.40;;;6.00;;
75246;SDS011;63844;50.042;19.224;2023-06-19T07:53:13;9.70;;;5.80;;
75246;SDS011;63844;50.042;19.224;2023-06-19T07:55:39;9.00;;;6.40;;
75246;SDS011;63844;50.042;19.224;2023-06-19T07:58:05;8.30;;;6.50;;
75246;SDS011;63844;50.042;19.224;2023-06-19T08:00:32;8.20;;;7.40;;
75246;SDS011;63844;50.042;19.224;2023-06-19T08:02:58;8.40;;;6.90;;
75246;SDS011;63844;50.042;19.224;2023-06-19T08:05:25;7.50;;;6.00;;
75246;SDS011;63844;50.042;19.224;2023-06-19T08:07:51;5.90;;;5.10;;
75246;SDS011;63844;50.042;19.224;2023-06-19T08:10:18;7.00;;;6.10;;
75246;SDS011;63844;50.042;19.224;2023-06-19T08:12:44;7.50;;;5.20;;
75246;SDS011;63844;50.042;19.224;2023-06-19T08:15:11;7.20;;;4.80;;
75246;SDS011;63844;50.042;19.224;2023-06-19T08:17:40;5.90;;;4.80;;
75246;SDS011;63844;50.042;19.224;2023-06-19T08:20:07;6.20;;;5.60;;
75246;SDS011;63844;50.042;19.224;2023-06-19T08:22:35;6.40;;;5.70;;
75246;SDS011;63844;50.042;19.224;2023-06-19T08:25:02;8.40;;;6.20;;
75246;SDS011;63844;50.042;19.224;2023-06-19T08:27:30;6.70;;;5.70;;
75246;SDS011;63844;50.042;19.224;2023-06-19T08:29:56;6.80;;;6.10;;
75246;SDS011;63844;50.042;19.224;2023-06-19T08:32:22;8.40;;;6.50;;
75246;SDS011;63844;50.042;19.224;2023-06-19T08:34:49;6.50;;;5.00;;
75246;SDS011;63844;50.042;19.224;2023-06-19T08:37:16;6.00;;;5.40;;
75246;SDS011;63844;50.042;19.224;2023-06-19T08:39:44;7.30;;;6.20;;
75246;SDS011;63844;50.042;19.224;2023-06-19T08:42:11;7.70;;;6.30;;
75246;SDS011;63844;50.042;19.224;2023-06-19T08:44:37;7.10;;;6.40;;
75246;SDS011;63844;50.042;19.224;2023-06-19T08:47:04;6.50;;;5.30;;
75246;SDS011;63844;50.042;19.224;2023-06-19T08:49:33;6.40;;;5.30;;
75246;SDS011;63844;50.042;19.224;2023-06-19T08:52:00;6.30;;;5.50;;
75246;SDS011;63844;50.042;19.224;2023-06-19T08:54:28;6.30;;;5.70;;
75246;SDS011;63844;50.042;19.224;2023-06-19T08:56:54;5.40;;;4.90;;
75246;SDS011;63844;50.042;19.224;2023-06-19T08:59:21;5.70;;;4.40;;
75246;SDS011;63844;50.042;19.224;2023-06-19T09:01:51;5.40;;;4.50;;
75246;SDS011;63844;50.042;19.224;2023-06-19T09:04:20;5.70;;;5.00;;
75246;SDS011;63844;50.042;19.224;2023-06-19T09:06:54;4.60;;;4.20;;
75246;SDS011;63844;50.042;19.224;2023-06-19T09:09:23;22.20;;;5.20;;
75246;SDS011;63844;50.042;19.224;2023-06-19T09:12:03;5.20;;;4.70;;
75246;SDS011;63844;50.042;19.224;2023-06-19T09:17:02;5.20;;;4.80;;
75246;SDS011;63844;50.042;19.224;2023-06-19T09:19:30;4.90;;;4.20;;
75246;SDS011;63844;50.042;19.224;2023-06-19T09:22:15;4.90;;;4.50;;
75246;SDS011;63844;50.042;19.224;2023-06-19T09:24:44;4.60;;;4.20;;
75246;SDS011;63844;50.042;19.224;2023-06-19T09:27:12;4.90;;;4.40;;
75246;SDS011;63844;50.042;19.224;2023-06-19T09:29:40;6.30;;;4.80;;
75246;SDS011;63844;50.042;19.224;2023-06-19T09:32:21;4.70;;;4.20;;
75246;SDS011;63844;50.042;19.224;2023-06-19T09:34:52;5.80;;;5.30;;
75246;SDS011;63844;50.042;19.224;2023-06-19T09:37:24;4.70;;;4.30;;
75246;SDS011;63844;50.042;19.224;2023-06-19T09:39:53;5.60;;;4.90;;
75246;SDS011;63844;50.042;19.224;2023-06-19T09:42:33;5.50;;;4.80;;
75246;SDS011;63844;50.042;19.224;2023-06-19T09:45:02;5.20;;;4.70;;
75246;SDS011;63844;50.042;19.224;2023-06-19T09:47:35;6.20;;;5.10;;
75246;SDS011;63844;50.042;19.224;2023-06-19T09:50:03;4.90;;;4.40;;
75246;SDS011;63844;50.042;19.224;2023-06-19T09:52:30;5.30;;;4.90;;
75246;SDS011;63844;50.042;19.224;2023-06-19T09:54:57;5.80;;;5.30;;
75246;SDS011;63844;50.042;19.224;2023-06-19T09:57:24;5.70;;;5.20;;
75246;SDS011;63844;50.042;19.224;2023-06-19T09:59:52;5.30;;;4.80;;
75246;SDS011;63844;50.042;19.224;2023-06-19T10:02:20;4.70;;;4.20;;
75246;SDS011;63844;50.042;19.224;2023-06-19T10:04:50;4.30;;;3.90;;
75246;SDS011;63844;50.042;19.224;2023-06-19T10:07:21;5.60;;;4.90;;
75246;SDS011;63844;50.042;19.224;2023-06-19T10:09:59;6.10;;;5.10;;
75246;SDS011;63844;50.042;19.224;2023-06-19T10:12:40;10.50;;;5.30;;
75246;SDS011;63844;50.042;19.224;2023-06-19T10:15:08;7.60;;;5.80;;
75246;SDS011;63844;50.042;19.224;2023-06-19T10:17:35;5.50;;;5.00;;
75246;SDS011;63844;50.042;19.224;2023-06-19T10:20:01;5.70;;;5.20;;
75246;SDS011;63844;50.042;19.224;2023-06-19T10:22:32;6.70;;;5.40;;
75246;SDS011;63844;50.042;19.224;2023-06-19T10:24:58;5.60;;;5.10;;
75246;SDS011;63844;50.042;19.224;2023-06-19T10:27:25;5.50;;;5.00;;
75246;SDS011;63844;50.042;19.224;2023-06-19T10:29:52;6.00;;;5.30;;
75246;SDS011;63844;50.042;19.224;2023-06-19T10:32:20;5.90;;;5.40;;
75246;SDS011;63844;50.042;19.224;2023-06-19T10:34:48;6.00;;;5.50;;
75246;SDS011;63844;50.042;19.224;2023-06-19T10:37:17;5.90;;;5.10;;
75246;SDS011;63844;50.042;19.224;2023-06-19T10:39:44;6.10;;;5.30;;
75246;SDS011;63844;50.042;19.224;2023-06-19T10:42:10;5.30;;;4.80;;
75246;SDS011;63844;50.042;19.224;2023-06-19T10:44:37;5.70;;;5.00;;
75246;SDS011;63844;50.042;19.224;2023-06-19T10:47:04;6.60;;;5.80;;
75246;SDS011;63844;50.042;19.224;2023-06-19T10:49:33;6.10;;;5.50;;
75246;SDS011;63844;50.042;19.224;2023-06-19T10:52:00;6.20;;;5.60;;
75246;SDS011;63844;50.042;19.224;2023-06-19T10:54:27;6.50;;;5.90;;
75246;SDS011;63844;50.042;19.224;2023-06-19T10:56:55;6.50;;;5.80;;
75246;SDS011;63844;50.042;19.224;2023-06-19T10:59:23;5.80;;;5.30;;
75246;SDS011;63844;50.042;19.224;2023-06-19T11:01:51;7.20;;;5.40;;
75246;SDS011;63844;50.042;19.224;2023-06-19T11:04:18;6.20;;;5.50;;
75246;SDS011;63844;50.042;19.224;2023-06-19T11:06:45;7.10;;;6.00;;
75246;SDS011;63844;50.042;19.224;2023-06-19T11:09:13;6.50;;;5.90;;
75246;SDS011;63844;50.042;19.224;2023-06-19T11:11:41;6.00;;;5.40;;
75246;SDS011;63844;50.042;19.224;2023-06-19T11:14:10;7.80;;;5.80;;
75246;SDS011;63844;50.042;19.224;2023-06-19T11:16:39;6.60;;;6.00;;
75246;SDS011;63844;50.042;19.224;2023-06-19T11:19:08;6.00;;;5.40;;
75246;SDS011;63844;50.042;19.224;2023-06-19T11:21:37;5.30;;;4.80;;
75246;SDS011;63844;50.042;19.224;2023-06-19T11:24:11;6.00;;;5.50;;
75246;SDS011;63844;50.042;19.224;2023-06-19T11:26:40;6.80;;;6.20;;
75246;SDS011;63844;50.042;19.224;2023-06-19T11:31:47;5.40;;;4.90;;
75246;SDS011;63844;50.042;19.224;2023-06-19T11:34:14;6.40;;;5.50;;
75246;SDS011;63844;50.042;19.224;2023-06-19T11:36:42;6.00;;;5.50;;
75246;SDS011;63844;50.042;19.224;2023-06-19T11:39:13;6.70;;;5.70;;
75246;SDS011;63844;50.042;19.224;2023-06-19T11:41:42;5.80;;;5.20;;
75246;SDS011;63844;50.042;19.224;2023-06-19T11:44:10;6.20;;;5.70;;
75246;SDS011;63844;50.042;19.224;2023-06-19T11:46:37;5.10;;;4.70;;
75246;SDS011;63844;50.042;19.224;2023-06-19T11:49:14;5.70;;;5.30;;
75246;SDS011;63844;50.042;19.224;2023-06-19T11:51:45;6.00;;;5.20;;
75246;SDS011;63844;50.042;19.224;2023-06-19T11:54:12;6.10;;;5.60;;
75246;SDS011;63844;50.042;19.224;2023-06-19T11:56:44;6.30;;;5.80;;
75246;SDS011;63844;50.042;19.224;2023-06-19T11:59:11;5.80;;;5.30;;
75246;SDS011;63844;50.042;19.224;2023-06-19T12:01:37;5.70;;;5.20;;
75246;SDS011;63844;50.042;19.224;2023-06-19T12:04:04;5.70;;;5.20;;
75246;SDS011;63844;50.042;19.224;2023-06-19T12:06:31;6.10;;;5.50;;
75246;SDS011;63844;50.042;19.224;2023-06-19T12:08:58;5.50;;;5.10;;
75246;SDS011;63844;50.042;19.224;2023-06-19T12:11:25;6.70;;;5.20;;
75246;SDS011;63844;50.042;19.224;2023-06-19T12:13:51;5.50;;;5.00;;
75246;SDS011;63844;50.042;19.224;2023-06-19T12:16:19;5.80;;;5.20;;
75246;SDS011;63844;50.042;19.224;2023-06-19T12:18:46;6.30;;;5.70;;
75246;SDS011;63844;50.042;19.224;2023-06-19T12:21:12;5.60;;;5.10;;
75246;SDS011;63844;50.042;19.224;2023-06-19T12:23:38;5.20;;;4.70;;
75246;SDS011;63844;50.042;19.224;2023-06-19T12:26:05;6.00;;;5.40;;
75246;SDS011;63844;50.042;19.224;2023-06-19T12:28:31;6.20;;;5.10;;
75246;SDS011;63844;50.042;19.224;2023-06-19T12:30:58;9.40;;;5.90;;
75246;SDS011;63844;50.042;19.224;2023-06-19T12:33:24;6.20;;;5.70;;
75246;SDS011;63844;50.042;19.224;2023-06-19T12:35:51;6.20;;;4.70;;
75246;SDS011;63844;50.042;19.224;2023-06-19T12:38:17;7.00;;;5.20;;
75246;SDS011;63844;50.042;19.224;2023-06-19T12:40:44;6.10;;;4.70;;
75246;SDS011;63844;50.042;19.224;2023-06-19T12:43:11;5.90;;;5.40;;
75246;SDS011;63844;50.042;19.224;2023-06-19T12:45:37;6.80;;;5.00;;
75246;SDS011;63844;50.042;19.224;2023-06-19T12:48:04;5.90;;;5.20;;
75246;SDS011;63844;50.042;19.224;2023-06-19T12:50:31;5.40;;;4.90;;
75246;SDS011;63844;50.042;19.224;2023-06-19T12:52:57;5.40;;;4.50;;
75246;SDS011;63844;50.042;19.224;2023-06-19T12:55:24;5.90;;;5.40;;
75246;SDS011;63844;50.042;19.224;2023-06-19T12:57:50;6.40;;;5.00;;
75246;SDS011;63844;50.042;19.224;2023-06-19T13:00:17;6.30;;;5.70;;
75246;SDS011;63844;50.042;19.224;2023-06-19T13:02:43;5.50;;;5.00;;
75246;SDS011;63844;50.042;19.224;2023-06-19T13:05:12;5.30;;;4.90;;
75246;SDS011;63844;50.042;19.224;2023-06-19T13:07:39;5.40;;;4.90;;
75246;SDS011;63844;50.042;19.224;2023-06-19T13:10:05;4.60;;;4.30;;
75246;SDS011;63844;50.042;19.224;2023-06-19T13:12:32;5.50;;;4.40;;
75246;SDS011;63844;50.042;19.224;2023-06-19T13:14:59;5.80;;;4.80;;
75246;SDS011;63844;50.042;19.224;2023-06-19T13:17:25;5.60;;;3.20;;
75246;SDS011;63844;50.042;19.224;2023-06-19T13:19:52;4.40;;;4.00;;
75246;SDS011;63844;50.042;19.224;2023-06-19T13:22:18;4.70;;;4.30;;
75246;SDS011;63844;50.042;19.224;2023-06-19T13:24:45;5.40;;;4.40;;
75246;SDS011;63844;50.042;19.224;2023-06-19T13:27:11;4.40;;;3.70;;
75246;SDS011;63844;50.042;19.224;2023-06-19T13:29:37;4.60;;;3.90;;
75246;SDS011;63844;50.042;19.224;2023-06-19T13:32:06;4.70;;;4.10;;
75246;SDS011;63844;50.042;19.224;2023-06-19T13:34:32;4.20;;;3.90;;
75246;SDS011;63844;50.042;19.224;2023-06-19T13:36:59;4.20;;;3.80;;
75246;SDS011;63844;50.042;19.224;2023-06-19T13:39:26;4.40;;;4.10;;
75246;SDS011;63844;50.042;19.224;2023-06-19T13:41:52;5.20;;;4.80;;
75246;SDS011;63844;50.042;19.224;2023-06-19T13:44:19;4.30;;;3.90;;
75246;SDS011;63844;50.042;19.224;2023-06-19T13:46:45;4.80;;;4.30;;
75246;SDS011;63844;50.042;19.224;2023-06-19T13:49:12;5.20;;;4.70;;
75246;SDS011;63844;50.042;19.224;2023-06-19T13:51:40;4.60;;;4.20;;
75246;SDS011;63844;50.042;19.224;2023-06-19T13:54:06;4.40;;;4.10;;
75246;SDS011;63844;50.042;19.224;2023-06-19T13:56:33;4.70;;;4.30;;
75246;SDS011;63844;50.042;19.224;2023-06-19T13:58:59;5.40;;;4.30;;
75246;SDS011;63844;50.042;19.224;2023-06-19T14:01:26;3.50;;;3.20;;
75246;SDS011;63844;50.042;19.224;2023-06-19T14:03:52;3.90;;;3.40;;
75246;SDS011;63844;50.042;19.224;2023-06-19T14:06:18;3.30;;;3.00;;
75246;SDS011;63844;50.042;19.224;2023-06-19T14:08:45;3.60;;;3.30;;
75246;SDS011;63844;50.042;19.224;2023-06-19T14:11:12;4.50;;;3.80;;
75246;SDS011;63844;50.042;19.224;2023-06-19T14:13:39;3.80;;;3.60;;
75246;SDS011;63844;50.042;19.224;2023-06-19T14:16:05;4.20;;;3.80;;
75246;SDS011;63844;50.042;19.224;2023-06-19T14:18:32;3.60;;;3.30;;
75246;SDS011;63844;50.042;19.224;2023-06-19T14:20:59;4.40;;;3.40;;
75246;SDS011;63844;50.042;19.224;2023-06-19T14:23:25;4.50;;;4.20;;
75246;SDS011;63844;50.042;19.224;2023-06-19T14:25:52;4.10;;;3.80;;
75246;SDS011;63844;50.042;19.224;2023-06-19T14:28:18;3.70;;;3.40;;
75246;SDS011;63844;50.042;19.224;2023-06-19T14:30:45;4.10;;;3.70;;
75246;SDS011;63844;50.042;19.224;2023-06-19T14:33:11;4.20;;;3.90;;
75246;SDS011;63844;50.042;19.224;2023-06-19T14:35:41;4.30;;;4.00;;
75246;SDS011;63844;50.042;19.224;2023-06-19T14:38:14;4.10;;;3.80;;
75246;SDS011;63844;50.042;19.224;2023-06-19T14:40:41;4.20;;;3.90;;
75246;SDS011;63844;50.042;19.224;2023-06-19T14:43:10;4.10;;;3.70;;
75246;SDS011;63844;50.042;19.224;2023-06-19T14:45:36;3.40;;;3.00;;
75246;SDS011;63844;50.042;19.224;2023-06-19T14:48:04;3.90;;;3.60;;
75246;SDS011;63844;50.042;19.224;2023-06-19T14:50:31;3.90;;;3.60;;
75246;SDS011;63844;50.042;19.224;2023-06-19T14:52:57;3.60;;;3.20;;
75246;SDS011;63844;50.042;19.224;2023-06-19T14:55:24;4.30;;;3.70;;
75246;SDS011;63844;50.042;19.224;2023-06-19T14:57:50;4.30;;;4.00;;
75246;SDS011;63844;50.042;19.224;2023-06-19T15:00:17;3.80;;;3.40;;
75246;SDS011;63844;50.042;19.224;2023-06-19T15:02:43;4.20;;;3.70;;
75246;SDS011;63844;50.042;19.224;2023-06-19T15:05:10;5.00;;;4.50;;
75246;SDS011;63844;50.042;19.224;2023-06-19T15:07:36;5.10;;;4.70;;
75246;SDS011;63844;50.042;19.224;2023-06-19T15:10:03;4.90;;;4.50;;
75246;SDS011;63844;50.042;19.224;2023-06-19T15:12:30;4.60;;;4.30;;
75246;SDS011;63844;50.042;19.224;2023-06-19T15:14:58;5.10;;;4.60;;
75246;SDS011;63844;50.042;19.224;2023-06-19T15:17:24;5.60;;;5.00;;
75246;SDS011;63844;50.042;19.224;2023-06-19T15:19:51;6.40;;;6.00;;
75246;SDS011;63844;50.042;19.224;2023-06-19T15:22:17;6.00;;;5.50;;
75246;SDS011;63844;50.042;19.224;2023-06-19T15:24:44;6.00;;;5.10;;
75246;SDS011;63844;50.042;19.224;2023-06-19T15:27:10;6.30;;;5.80;;
75246;SDS011;63844;50.042;19.224;2023-06-19T15:29:37;6.80;;;6.30;;
75246;SDS011;63844;50.042;19.224;2023-06-19T15:32:05;6.30;;;5.90;;
75246;SDS011;63844;50.042;19.224;2023-06-19T15:34:31;5.30;;;4.90;;
75246;SDS011;63844;50.042;19.224;2023-06-19T15:36:58;6.20;;;5.60;;
75246;SDS011;63844;50.042;19.224;2023-06-19T15:39:24;5.30;;;5.00;;
75246;SDS011;63844;50.042;19.224;2023-06-19T15:41:51;6.00;;;5.60;;
75246;SDS011;63844;50.042;19.224;2023-06-19T15:44:17;7.10;;;6.60;;
75246;SDS011;63844;50.042;19.224;2023-06-19T15:46:44;6.50;;;5.80;;